createdAt,value
2023-04-04T00:01:38.333Z,3.60
2023-04-04T00:06:44.356Z,3.70
2023-04-04T00:11:46.655Z,3.60
2023-04-04T00:16:48.467Z,3.50
2023-04-04T00:21:50.356Z,3.50
2023-04-04T00:26:52.142Z,3.50
2023-04-04T00:31:53.961Z,3.40
2023-04-04T00:36:56.057Z,3.40
2023-04-04T00:41:57.769Z,3.40
2023-04-04T00:46:59.500Z,3.30
2023-04-04T00:52:01.164Z,3.40
2023-04-04T00:57:05.273Z,3.20
2023-04-04T01:02:07.398Z,3.20
2023-04-04T01:07:09.129Z,3.20
2023-04-04T01:12:11.243Z,3.20
2023-04-04T01:17:13.201Z,3.20
2023-04-04T01:22:15.903Z,3.10
2023-04-04T01:27:18.152Z,3.00
2023-04-04T01:32:27.174Z,3.00
2023-04-04T01:37:51.896Z,3.00
2023-04-04T01:42:54.136Z,2.90
2023-04-04T01:47:57.051Z,2.90
2023-04-04T01:52:58.795Z,2.90
2023-04-04T01:58:00.561Z,2.80
2023-04-04T02:03:02.696Z,2.80
2023-04-04T02:08:04.675Z,2.80
2023-04-04T02:13:06.757Z,2.70
2023-04-04T02:18:09.315Z,2.70
2023-04-04T02:23:11.048Z,2.70
2023-04-04T02:28:13.062Z,2.60
2023-04-04T02:33:14.806Z,2.60
2023-04-04T02:38:16.481Z,2.50
2023-04-04T02:43:18.325Z,2.40
2023-04-04T02:48:20.443Z,2.50
2023-04-04T02:53:22.371Z,2.40
2023-04-04T02:58:24.140Z,2.40
2023-04-04T03:03:26.272Z,2.30
2023-04-04T03:08:28.636Z,2.30
2023-04-04T03:13:30.420Z,2.20
2023-04-04T03:18:33.377Z,2.20
2023-04-04T03:23:35.085Z,2.10
2023-04-04T03:28:36.931Z,2.00
2023-04-04T03:33:38.726Z,2.00
2023-04-04T03:38:41.294Z,2.00
2023-04-04T03:43:43.006Z,1.90
2023-04-04T03:48:44.741Z,1.90
2023-04-04T03:53:46.492Z,1.90
2023-04-04T03:58:48.474Z,1.90
2023-04-04T04:03:50.418Z,1.90
2023-04-04T04:08:52.172Z,1.90
2023-04-04T04:13:54.172Z,1.80
2023-04-04T04:18:55.936Z,1.90
2023-04-04T04:23:57.646Z,1.80
2023-04-04T04:28:59.338Z,1.80
2023-04-04T04:34:01.182Z,1.70
2023-04-04T04:39:02.988Z,1.70
2023-04-04T04:44:04.833Z,1.70
2023-04-04T04:49:06.605Z,1.70
2023-04-04T04:54:08.543Z,1.70
2023-04-04T04:59:11.382Z,1.80
2023-04-04T05:04:13.154Z,1.80
2023-04-04T05:09:14.990Z,1.70
2023-04-04T05:14:16.675Z,1.80
2023-04-04T05:19:18.534Z,1.70
2023-04-04T05:24:20.432Z,1.80
2023-04-04T05:29:22.190Z,1.80
2023-04-04T05:34:23.881Z,1.80
2023-04-04T05:39:25.648Z,1.90
2023-04-04T05:44:27.357Z,2.00
2023-04-04T05:49:29.024Z,2.00
2023-04-04T05:54:30.785Z,2.10
2023-04-04T05:59:32.580Z,2.00
2023-04-04T06:04:34.343Z,2.00
2023-04-04T06:09:36.345Z,1.90
2023-04-04T06:14:38.187Z,1.80
2023-04-04T06:19:39.940Z,1.90
2023-04-04T06:24:41.662Z,1.90
2023-04-04T06:29:43.905Z,1.90
2023-04-04T06:34:46.037Z,2.00
2023-04-04T06:39:47.777Z,2.10
2023-04-04T06:44:49.592Z,2.30
2023-04-04T06:49:51.401Z,2.40
2023-04-04T06:54:53.141Z,2.50
2023-04-04T06:59:54.974Z,2.70
2023-04-04T07:04:56.756Z,2.80
2023-04-04T07:09:58.602Z,2.70
2023-04-04T07:15:00.383Z,2.50
2023-04-04T07:20:04.197Z,2.60
2023-04-04T07:25:07.460Z,2.60
2023-04-04T07:30:09.836Z,2.60
2023-04-04T07:35:11.582Z,2.80
2023-04-04T07:40:14.714Z,2.90
2023-04-04T07:45:16.941Z,2.60
2023-04-04T07:50:18.824Z,2.60
2023-04-04T07:55:20.754Z,2.70
2023-04-04T08:00:26.014Z,2.90
2023-04-04T08:05:27.936Z,3.00
2023-04-04T08:10:30.287Z,3.20
2023-04-04T08:15:32.132Z,3.30
2023-04-04T08:20:33.860Z,3.20
2023-04-04T08:25:36.057Z,3.40
2023-04-04T08:30:38.127Z,3.60
2023-04-04T08:35:40.217Z,3.70
2023-04-04T08:40:45.234Z,4.00
2023-04-04T08:45:48.577Z,4.00
2023-04-04T08:50:51.668Z,4.20
2023-04-04T08:55:55.206Z,4.70
2023-04-04T09:00:57.264Z,5.10
2023-04-04T09:05:59.576Z,5.20
2023-04-04T09:11:03.629Z,5.20
2023-04-04T09:16:06.009Z,5.20
2023-04-04T09:21:12.158Z,5.10
2023-04-04T09:26:13.821Z,5.50
2023-04-04T09:31:17.267Z,5.40
2023-04-04T09:36:19.189Z,6.20
2023-04-04T09:41:21.529Z,6.30
2023-04-04T09:46:24.161Z,6.10
2023-04-04T09:51:34.188Z,5.80
2023-04-04T09:56:39.196Z,5.80
2023-04-04T10:01:41.067Z,5.90
2023-04-04T10:06:44.663Z,6.60
2023-04-04T10:11:47.052Z,6.70
2023-04-04T10:16:48.783Z,6.80
2023-04-04T10:21:50.587Z,6.90
2023-04-04T10:26:54.182Z,7.20
2023-04-04T10:32:07.140Z,7.00
2023-04-04T10:37:27.065Z,6.50
2023-04-04T10:42:34.391Z,6.70
2023-04-04T10:47:37.489Z,5.70
2023-04-04T10:52:44.456Z,6.10
2023-04-04T10:57:51.785Z,6.60
2023-04-04T11:02:55.451Z,7.00
2023-04-04T11:13:25.535Z,6.70
2023-04-04T11:18:40.420Z,6.60
2023-04-04T11:24:05.257Z,6.00
2023-04-04T11:29:14.441Z,6.50
2023-04-04T11:34:31.178Z,7.10
2023-04-04T11:39:33.760Z,7.50
2023-04-04T11:44:43.101Z,6.90
2023-04-04T11:49:49.957Z,7.10
2023-04-04T11:54:52.740Z,6.40
2023-04-04T11:59:54.863Z,6.30
2023-04-04T12:04:57.680Z,6.70
2023-04-04T12:09:59.711Z,6.50
2023-04-04T12:15:16.468Z,6.60
2023-04-04T12:20:22.881Z,7.30
2023-04-04T12:25:26.209Z,7.70
2023-04-04T12:30:28.345Z,7.10
2023-04-04T12:35:31.331Z,6.80
2023-04-04T12:40:38.137Z,6.60
2023-04-04T12:45:41.322Z,7.60
2023-04-04T12:50:58.304Z,8.50
2023-04-04T12:56:05.579Z,7.90
2023-04-04T13:01:08.490Z,7.30
2023-04-04T13:11:25.834Z,7.90
2023-04-04T13:16:38.635Z,8.80
2023-04-04T13:26:52.395Z,10.00
2023-04-04T13:31:54.723Z,8.60
2023-04-04T13:36:56.880Z,8.00
2023-04-04T13:41:59.084Z,8.40
2023-04-04T13:47:02.357Z,7.80
2023-04-04T13:52:04.366Z,7.80
2023-04-04T13:57:06.555Z,7.60
2023-04-04T14:02:09.816Z,7.80
2023-04-04T14:07:12.343Z,8.00
2023-04-04T14:17:15.623Z,8.70
2023-04-04T14:22:17.773Z,9.00
2023-04-04T14:27:19.609Z,9.00
2023-04-04T14:32:21.383Z,9.30
2023-04-04T14:37:23.317Z,8.50
2023-04-04T14:42:25.117Z,8.40
2023-04-04T14:47:26.877Z,8.40
2023-04-04T14:52:31.357Z,9.20
2023-04-04T14:57:39.116Z,10.80
2023-04-04T15:02:49.138Z,11.70
2023-04-04T15:07:51.076Z,10.40
2023-04-04T15:12:52.901Z,10.10
2023-04-04T15:17:54.833Z,10.50
2023-04-04T15:22:56.695Z,10.10
2023-04-04T15:27:58.558Z,10.40
2023-04-04T15:33:00.568Z,10.10
2023-04-04T15:38:02.303Z,10.40
2023-04-04T15:43:05.700Z,10.00
2023-04-04T15:48:07.897Z,9.80
2023-04-04T15:53:09.687Z,10.40
2023-04-04T15:58:11.431Z,9.10
2023-04-04T16:03:13.442Z,8.60
2023-04-04T16:08:15.367Z,8.30
2023-04-04T16:13:17.207Z,8.10
2023-04-04T16:18:19.258Z,8.30
2023-04-04T16:23:21.590Z,8.00
2023-04-04T16:28:23.292Z,7.90
2023-04-04T16:33:25.076Z,7.90
2023-04-04T16:38:27.054Z,8.00
2023-04-04T16:43:28.807Z,7.70
2023-04-04T16:48:30.693Z,7.60
2023-04-04T16:53:33.644Z,7.60
2023-04-04T16:58:37.677Z,7.90
2023-04-04T17:03:39.548Z,7.80
2023-04-04T17:08:43.081Z,7.70
2023-04-04T17:13:44.876Z,7.60
2023-04-04T17:18:46.576Z,7.30
2023-04-04T17:23:48.384Z,7.20
2023-04-04T17:28:50.098Z,7.00
2023-04-04T17:33:52.131Z,6.90
2023-04-04T17:38:54.484Z,6.80
2023-04-04T17:43:56.266Z,6.80
2023-04-04T17:48:57.996Z,6.70
2023-04-04T17:54:00.764Z,6.60
2023-04-04T17:59:02.685Z,6.40
2023-04-04T18:04:05.043Z,6.30
2023-04-04T18:09:07.548Z,6.20
2023-04-04T18:14:09.268Z,6.00
2023-04-04T18:19:11.531Z,5.90
2023-04-04T18:24:14.227Z,5.90
2023-04-04T18:29:15.911Z,5.80
2023-04-04T18:34:18.088Z,5.90
2023-04-04T18:39:19.881Z,6.00
2023-04-04T18:44:21.763Z,6.10
2023-04-04T18:49:23.499Z,6.10
2023-04-04T18:54:27.110Z,6.10
2023-04-04T18:59:30.810Z,6.10
2023-04-04T19:04:35.754Z,6.10
2023-04-04T19:09:38.217Z,6.20
2023-04-04T19:14:39.938Z,6.20
2023-04-04T19:19:43.249Z,6.20
2023-04-04T19:24:44.986Z,6.20
2023-04-04T19:29:46.948Z,6.10
2023-04-04T19:34:49.728Z,6.10
2023-04-04T19:39:51.733Z,6.10
2023-04-04T19:44:54.440Z,6.20
2023-04-04T19:49:58.000Z,6.10
2023-04-04T19:55:02.118Z,6.10
2023-04-04T20:00:14.079Z,6.10
2023-04-04T20:05:32.455Z,6.00
2023-04-04T20:10:42.580Z,6.10
2023-04-04T20:15:48.230Z,6.00
2023-04-04T20:21:12.581Z,6.00
2023-04-04T20:26:40.633Z,5.90
2023-04-04T20:31:54.259Z,5.80
2023-04-04T20:36:56.204Z,5.80
2023-04-04T20:41:59.215Z,5.70
2023-04-04T20:47:01.124Z,5.40
2023-04-04T20:52:04.713Z,5.30
2023-04-04T20:57:07.527Z,5.10
2023-04-04T21:02:12.628Z,4.90
2023-04-04T21:07:34.799Z,4.80
2023-04-04T21:12:36.725Z,4.70
2023-04-04T21:17:38.855Z,4.60
2023-04-04T21:22:40.944Z,4.50
2023-04-04T21:27:42.624Z,4.40
2023-04-04T21:32:44.459Z,4.30
2023-04-04T21:37:46.205Z,4.20
2023-04-04T21:42:47.992Z,4.00
2023-04-04T21:47:49.745Z,4.00
2023-04-04T21:52:51.428Z,4.00
2023-04-04T21:57:53.132Z,3.80
2023-04-04T22:02:54.877Z,3.80
2023-04-04T22:07:57.089Z,3.70
2023-04-04T22:13:00.097Z,3.60
2023-04-04T22:18:05.089Z,3.60
2023-04-04T22:23:07.277Z,3.50
2023-04-04T22:28:09.637Z,3.50
2023-04-04T22:33:11.969Z,3.50
2023-04-04T22:38:14.529Z,3.40
2023-04-04T22:43:16.252Z,3.50
2023-04-04T22:48:18.692Z,3.40
2023-04-04T22:53:25.014Z,3.40
2023-04-04T22:58:27.013Z,3.40
2023-04-04T23:03:28.674Z,3.50
2023-04-04T23:08:30.387Z,3.60
2023-04-04T23:13:34.581Z,3.70
2023-04-04T23:18:36.249Z,3.70
2023-04-04T23:23:38.026Z,3.60
2023-04-04T23:28:39.734Z,3.60
2023-04-04T23:33:41.440Z,3.80
2023-04-04T23:38:43.419Z,3.70
2023-04-04T23:43:46.072Z,3.70
2023-04-04T23:48:47.981Z,3.80
2023-04-04T23:53:49.700Z,3.90
2023-04-04T23:58:51.408Z,3.90
